sensor_id;sensor_type;location;lat;lon;timestamp;P1;durP1;ratioP1;P2;durP2;ratioP2
7511;SDS011;9999;48.780;9.146;2023-02-08T00:00:44;6.33;;;3.53;;
7511;SDS011;9999;48.780;9.146;2023-02-08T00:03:11;6.73;;;3.97;;
7511;SDS011;9999;48.780;9.146;2023-02-08T00:05:38;6.17;;;3.40;;
7511;SDS011;9999;48.780;9.146;2023-02-08T00:08:06;7.07;;;4.10;;
7511;SDS011;9999;48.780;9.146;2023-02-08T00:10:33;4.50;;;3.10;;
7511;SDS011;9999;48.780;9.146;2023-02-08T00:13:00;4.83;;;3.67;;
7511;SDS011;9999;48.780;9.146;2023-02-08T00:15:27;6.67;;;3.67;;
7511;SDS011;9999;48.780;9.146;2023-02-08T00:17:54;6.40;;;3.27;;
7511;SDS011;9999;48.780;9.146;2023-02-08T00:20:21;8.80;;;3.70;;
7511;SDS011;9999;48.780;9.146;2023-02-08T00:22:48;5.30;;;3.23;;
7511;SDS011;9999;48.780;9.146;2023-02-08T00:25:16;6.43;;;4.30;;
7511;SDS011;9999;48.780;9.146;2023-02-08T00:27:43;5.63;;;3.17;;
7511;SDS011;9999;48.780;9.146;2023-02-08T00:30:10;5.33;;;3.97;;
7511;SDS011;9999;48.780;9.146;2023-02-08T00:32:37;9.20;;;4.67;;
7511;SDS011;9999;48.780;9.146;2023-02-08T00:35:04;6.40;;;4.20;;
7511;SDS011;9999;48.780;9.146;2023-02-08T00:37:32;7.63;;;3.87;;
7511;SDS011;9999;48.780;9.146;2023-02-08T00:39:58;4.43;;;4.00;;
7511;SDS011;9999;48.780;9.146;2023-02-08T00:42:28;5.10;;;3.90;;
7511;SDS011;9999;48.780;9.146;2023-02-08T00:44:55;4.13;;;3.23;;
7511;SDS011;9999;48.780;9.146;2023-02-08T00:47:22;4.33;;;3.30;;
7511;SDS011;9999;48.780;9.146;2023-02-08T00:49:49;6.17;;;3.80;;
7511;SDS011;9999;48.780;9.146;2023-02-08T00:52:16;5.00;;;3.90;;
7511;SDS011;9999;48.780;9.146;2023-02-08T00:54:43;4.73;;;4.07;;
7511;SDS011;9999;48.780;9.146;2023-02-08T00:57:11;5.17;;;3.47;;
7511;SDS011;9999;48.780;9.146;2023-02-08T00:59:39;5.93;;;4.20;;
7511;SDS011;9999;48.780;9.146;2023-02-08T01:02:07;7.27;;;4.27;;
7511;SDS011;9999;48.780;9.146;2023-02-08T01:04:34;8.00;;;4.50;;
7511;SDS011;9999;48.780;9.146;2023-02-08T01:07:01;7.20;;;4.13;;
7511;SDS011;9999;48.780;9.146;2023-02-08T01:09:29;5.50;;;3.93;;
7511;SDS011;9999;48.780;9.146;2023-02-08T01:11:56;6.57;;;4.17;;
7511;SDS011;9999;48.780;9.146;2023-02-08T01:14:23;9.37;;;4.53;;
7511;SDS011;9999;48.780;9.146;2023-02-08T01:16:52;8.23;;;3.93;;
7511;SDS011;9999;48.780;9.146;2023-02-08T01:19:19;4.37;;;3.20;;
7511;SDS011;9999;48.780;9.146;2023-02-08T01:21:46;5.77;;;3.90;;
7511;SDS011;9999;48.780;9.146;2023-02-08T01:24:14;3.23;;;2.77;;
7511;SDS011;9999;48.780;9.146;2023-02-08T01:26:41;5.63;;;3.47;;
7511;SDS011;9999;48.780;9.146;2023-02-08T01:29:08;6.07;;;3.37;;
7511;SDS011;9999;48.780;9.146;2023-02-08T01:31:37;4.97;;;3.07;;
7511;SDS011;9999;48.780;9.146;2023-02-08T01:34:08;5.17;;;3.43;;
7511;SDS011;9999;48.780;9.146;2023-02-08T01:36:35;4.40;;;2.97;;
7511;SDS011;9999;48.780;9.146;2023-02-08T01:39:03;7.50;;;3.70;;
7511;SDS011;9999;48.780;9.146;2023-02-08T01:41:32;4.93;;;3.37;;
7511;SDS011;9999;48.780;9.146;2023-02-08T01:44:01;8.17;;;3.53;;
7511;SDS011;9999;48.780;9.146;2023-02-08T01:46:33;6.67;;;3.07;;
7511;SDS011;9999;48.780;9.146;2023-02-08T01:49:03;4.80;;;3.50;;
7511;SDS011;9999;48.780;9.146;2023-02-08T01:51:36;6.87;;;4.10;;
7511;SDS011;9999;48.780;9.146;2023-02-08T01:54:08;6.87;;;3.97;;
7511;SDS011;9999;48.780;9.146;2023-02-08T01:56:37;5.83;;;3.17;;
7511;SDS011;9999;48.780;9.146;2023-02-08T01:59:11;7.77;;;3.87;;
7511;SDS011;9999;48.780;9.146;2023-02-08T02:01:42;6.20;;;4.03;;
7511;SDS011;9999;48.780;9.146;2023-02-08T02:04:11;9.83;;;3.87;;
7511;SDS011;9999;48.780;9.146;2023-02-08T02:06:41;9.23;;;4.40;;
7511;SDS011;9999;48.780;9.146;2023-02-08T02:09:12;3.37;;;3.07;;
7511;SDS011;9999;48.780;9.146;2023-02-08T02:11:43;5.30;;;3.67;;
7511;SDS011;9999;48.780;9.146;2023-02-08T02:14:10;5.33;;;4.53;;
7511;SDS011;9999;48.780;9.146;2023-02-08T02:16:38;7.47;;;3.67;;
7511;SDS011;9999;48.780;9.146;2023-02-08T02:19:05;7.57;;;4.77;;
7511;SDS011;9999;48.780;9.146;2023-02-08T02:21:45;7.83;;;4.03;;
7511;SDS011;9999;48.780;9.146;2023-02-08T02:24:25;4.17;;;3.70;;
7511;SDS011;9999;48.780;9.146;2023-02-08T02:30:23;6.00;;;3.83;;
7511;SDS011;9999;48.780;9.146;2023-02-08T02:33:25;5.40;;;3.90;;
7511;SDS011;9999;48.780;9.146;2023-02-08T02:36:03;5.43;;;4.33;;
7511;SDS011;9999;48.780;9.146;2023-02-08T02:38:38;4.27;;;3.67;;
7511;SDS011;9999;48.780;9.146;2023-02-08T02:41:11;9.43;;;5.40;;
7511;SDS011;9999;48.780;9.146;2023-02-08T02:44:06;4.03;;;3.10;;
7511;SDS011;9999;48.780;9.146;2023-02-08T02:46:40;7.03;;;4.17;;
7511;SDS011;9999;48.780;9.146;2023-02-08T02:49:11;6.67;;;4.93;;
7511;SDS011;9999;48.780;9.146;2023-02-08T02:51:45;6.40;;;4.20;;
7511;SDS011;9999;48.780;9.146;2023-02-08T02:54:15;4.77;;;3.63;;
7511;SDS011;9999;48.780;9.146;2023-02-08T02:56:46;7.80;;;3.50;;
7511;SDS011;9999;48.780;9.146;2023-02-08T02:59:16;3.70;;;3.40;;
7511;SDS011;9999;48.780;9.146;2023-02-08T03:01:45;7.67;;;3.50;;
7511;SDS011;9999;48.780;9.146;2023-02-08T03:04:14;5.83;;;3.73;;
7511;SDS011;9999;48.780;9.146;2023-02-08T03:06:48;10.30;;;6.13;;
7511;SDS011;9999;48.780;9.146;2023-02-08T03:09:30;6.87;;;3.37;;
7511;SDS011;9999;48.780;9.146;2023-02-08T03:12:11;5.37;;;4.87;;
7511;SDS011;9999;48.780;9.146;2023-02-08T03:14:49;6.07;;;4.07;;
7511;SDS011;9999;48.780;9.146;2023-02-08T03:17:27;4.37;;;2.93;;
7511;SDS011;9999;48.780;9.146;2023-02-08T03:20:04;9.00;;;4.53;;
7511;SDS011;9999;48.780;9.146;2023-02-08T03:22:35;8.07;;;4.03;;
7511;SDS011;9999;48.780;9.146;2023-02-08T03:25:09;6.03;;;3.90;;
7511;SDS011;9999;48.780;9.146;2023-02-08T03:27:39;7.47;;;4.37;;
7511;SDS011;9999;48.780;9.146;2023-02-08T03:30:15;7.50;;;4.60;;
7511;SDS011;9999;48.780;9.146;2023-02-08T03:32:46;6.27;;;4.57;;
7511;SDS011;9999;48.780;9.146;2023-02-08T03:35:19;3.90;;;3.33;;
7511;SDS011;9999;48.780;9.146;2023-02-08T03:37:52;7.87;;;3.77;;
7511;SDS011;9999;48.780;9.146;2023-02-08T03:40:23;9.07;;;4.20;;
7511;SDS011;9999;48.780;9.146;2023-02-08T03:42:55;6.17;;;4.27;;
7511;SDS011;9999;48.780;9.146;2023-02-08T03:45:27;7.37;;;4.10;;
7511;SDS011;9999;48.780;9.146;2023-02-08T03:47:57;6.87;;;4.70;;
7511;SDS011;9999;48.780;9.146;2023-02-08T03:50:29;7.87;;;4.27;;
7511;SDS011;9999;48.780;9.146;2023-02-08T03:53:00;5.93;;;4.43;;
7511;SDS011;9999;48.780;9.146;2023-02-08T03:55:29;7.97;;;4.43;;
7511;SDS011;9999;48.780;9.146;2023-02-08T03:58:02;8.20;;;3.73;;
7511;SDS011;9999;48.780;9.146;2023-02-08T04:00:32;5.83;;;4.00;;
7511;SDS011;9999;48.780;9.146;2023-02-08T04:03:04;5.13;;;3.43;;
7511;SDS011;9999;48.780;9.146;2023-02-08T04:05:37;5.93;;;3.73;;
7511;SDS011;9999;48.780;9.146;2023-02-08T04:08:04;4.73;;;3.23;;
7511;SDS011;9999;48.780;9.146;2023-02-08T04:10:31;5.70;;;3.13;;
7511;SDS011;9999;48.780;9.146;2023-02-08T04:12:58;5.73;;;3.13;;
7511;SDS011;9999;48.780;9.146;2023-02-08T04:15:24;12.10;;;4.43;;
7511;SDS011;9999;48.780;9.146;2023-02-08T04:17:52;5.80;;;3.73;;
7511;SDS011;9999;48.780;9.146;2023-02-08T04:20:18;7.23;;;4.57;;
7511;SDS011;9999;48.780;9.146;2023-02-08T04:22:47;6.10;;;4.00;;
7511;SDS011;9999;48.780;9.146;2023-02-08T04:25:13;6.17;;;4.23;;
7511;SDS011;9999;48.780;9.146;2023-02-08T04:27:41;9.60;;;4.87;;
7511;SDS011;9999;48.780;9.146;2023-02-08T04:30:08;7.03;;;3.97;;
7511;SDS011;9999;48.780;9.146;2023-02-08T04:32:36;10.70;;;4.57;;
7511;SDS011;9999;48.780;9.146;2023-02-08T04:35:03;4.43;;;4.10;;
7511;SDS011;9999;48.780;9.146;2023-02-08T04:37:30;6.17;;;3.90;;
7511;SDS011;9999;48.780;9.146;2023-02-08T04:39:58;4.17;;;3.77;;
7511;SDS011;9999;48.780;9.146;2023-02-08T04:42:25;5.03;;;4.10;;
7511;SDS011;9999;48.780;9.146;2023-02-08T04:44:52;9.33;;;4.43;;
7511;SDS011;9999;48.780;9.146;2023-02-08T04:47:19;5.60;;;3.40;;
7511;SDS011;9999;48.780;9.146;2023-02-08T04:49:46;5.17;;;4.67;;
7511;SDS011;9999;48.780;9.146;2023-02-08T04:52:12;5.97;;;3.83;;
7511;SDS011;9999;48.780;9.146;2023-02-08T04:54:39;3.07;;;2.87;;
7511;SDS011;9999;48.780;9.146;2023-02-08T04:57:07;4.50;;;3.80;;
7511;SDS011;9999;48.780;9.146;2023-02-08T04:59:36;5.93;;;4.17;;
7511;SDS011;9999;48.780;9.146;2023-02-08T05:02:03;6.80;;;4.20;;
7511;SDS011;9999;48.780;9.146;2023-02-08T05:04:30;6.37;;;5.00;;
7511;SDS011;9999;48.780;9.146;2023-02-08T05:06:57;10.17;;;4.10;;
7511;SDS011;9999;48.780;9.146;2023-02-08T05:09:24;8.50;;;3.93;;
7511;SDS011;9999;48.780;9.146;2023-02-08T05:11:50;5.07;;;3.87;;
7511;SDS011;9999;48.780;9.146;2023-02-08T05:14:19;8.10;;;4.20;;
7511;SDS011;9999;48.780;9.146;2023-02-08T05:16:45;6.23;;;4.30;;
7511;SDS011;9999;48.780;9.146;2023-02-08T05:19:12;5.93;;;3.77;;
7511;SDS011;9999;48.780;9.146;2023-02-08T05:21:39;7.53;;;3.83;;
7511;SDS011;9999;48.780;9.146;2023-02-08T05:24:06;8.77;;;4.27;;
7511;SDS011;9999;48.780;9.146;2023-02-08T05:26:36;7.60;;;4.07;;
7511;SDS011;9999;48.780;9.146;2023-02-08T05:29:03;7.67;;;3.87;;
7511;SDS011;9999;48.780;9.146;2023-02-08T05:31:31;5.23;;;4.00;;
7511;SDS011;9999;48.780;9.146;2023-02-08T05:33:58;6.73;;;5.13;;
7511;SDS011;9999;48.780;9.146;2023-02-08T05:36:25;4.57;;;3.77;;
7511;SDS011;9999;48.780;9.146;2023-02-08T05:38:52;6.30;;;4.37;;
7511;SDS011;9999;48.780;9.146;2023-02-08T05:41:19;8.40;;;4.00;;
7511;SDS011;9999;48.780;9.146;2023-02-08T05:43:46;7.83;;;4.37;;
7511;SDS011;9999;48.780;9.146;2023-02-08T05:46:13;3.97;;;3.63;;
7511;SDS011;9999;48.780;9.146;2023-02-08T05:48:41;9.27;;;5.43;;
7511;SDS011;9999;48.780;9.146;2023-02-08T05:51:08;4.07;;;3.50;;
7511;SDS011;9999;48.780;9.146;2023-02-08T05:53:35;6.30;;;3.90;;
7511;SDS011;9999;48.780;9.146;2023-02-08T05:56:02;6.97;;;4.77;;
7511;SDS011;9999;48.780;9.146;2023-02-08T05:58:29;10.43;;;4.83;;
7511;SDS011;9999;48.780;9.146;2023-02-08T06:00:56;12.03;;;4.13;;
7511;SDS011;9999;48.780;9.146;2023-02-08T06:03:23;6.83;;;4.77;;
7511;SDS011;9999;48.780;9.146;2023-02-08T06:05:51;5.37;;;4.13;;
7511;SDS011;9999;48.780;9.146;2023-02-08T06:08:17;5.00;;;3.93;;
7511;SDS011;9999;48.780;9.146;2023-02-08T06:10:46;8.97;;;3.97;;
7511;SDS011;9999;48.780;9.146;2023-02-08T06:13:13;7.53;;;4.03;;
7511;SDS011;9999;48.780;9.146;2023-02-08T06:15:40;7.27;;;4.10;;
7511;SDS011;9999;48.780;9.146;2023-02-08T06:18:07;5.13;;;3.57;;
7511;SDS011;9999;48.780;9.146;2023-02-08T06:20:34;5.67;;;4.07;;
7511;SDS011;9999;48.780;9.146;2023-02-08T06:23:02;8.90;;;4.57;;
7511;SDS011;9999;48.780;9.146;2023-02-08T06:25:29;6.23;;;4.33;;
7511;SDS011;9999;48.780;9.146;2023-02-08T06:27:56;6.47;;;3.97;;
7511;SDS011;9999;48.780;9.146;2023-02-08T06:30:22;5.17;;;4.27;;
7511;SDS011;9999;48.780;9.146;2023-02-08T06:32:49;8.77;;;3.57;;
7511;SDS011;9999;48.780;9.146;2023-02-08T06:35:16;4.47;;;3.70;;
7511;SDS011;9999;48.780;9.146;2023-02-08T06:37:43;5.97;;;4.13;;
7511;SDS011;9999;48.780;9.146;2023-02-08T06:40:11;4.53;;;3.40;;
7511;SDS011;9999;48.780;9.146;2023-02-08T06:42:38;5.40;;;4.13;;
7511;SDS011;9999;48.780;9.146;2023-02-08T06:45:05;8.80;;;5.17;;
7511;SDS011;9999;48.780;9.146;2023-02-08T06:47:33;7.33;;;3.80;;
7511;SDS011;9999;48.780;9.146;2023-02-08T06:50:00;5.30;;;3.90;;
7511;SDS011;9999;48.780;9.146;2023-02-08T06:52:27;6.03;;;4.57;;
7511;SDS011;9999;48.780;9.146;2023-02-08T06:54:54;5.80;;;4.43;;
7511;SDS011;9999;48.780;9.146;2023-02-08T06:57:22;8.83;;;4.13;;
7511;SDS011;9999;48.780;9.146;2023-02-08T06:59:48;5.30;;;4.03;;
7511;SDS011;9999;48.780;9.146;2023-02-08T07:02:17;6.10;;;4.17;;
7511;SDS011;9999;48.780;9.146;2023-02-08T07:04:44;6.10;;;4.10;;
7511;SDS011;9999;48.780;9.146;2023-02-08T07:07:12;11.83;;;5.50;;
7511;SDS011;9999;48.780;9.146;2023-02-08T07:09:39;9.43;;;4.87;;
7511;SDS011;9999;48.780;9.146;2023-02-08T07:12:06;5.77;;;3.87;;
7511;SDS011;9999;48.780;9.146;2023-02-08T07:14:35;8.80;;;5.23;;
7511;SDS011;9999;48.780;9.146;2023-02-08T07:17:04;7.60;;;4.37;;
7511;SDS011;9999;48.780;9.146;2023-02-08T07:19:31;8.23;;;4.20;;
7511;SDS011;9999;48.780;9.146;2023-02-08T07:21:58;9.57;;;4.27;;
7511;SDS011;9999;48.780;9.146;2023-02-08T07:24:28;8.53;;;4.83;;
7511;SDS011;9999;48.780;9.146;2023-02-08T07:26:55;8.97;;;4.77;;
7511;SDS011;9999;48.780;9.146;2023-02-08T07:29:22;6.97;;;4.83;;
7511;SDS011;9999;48.780;9.146;2023-02-08T07:31:50;7.80;;;4.00;;
7511;SDS011;9999;48.780;9.146;2023-02-08T07:34:17;6.30;;;3.77;;
7511;SDS011;9999;48.780;9.146;2023-02-08T07:36:46;5.07;;;4.07;;
7511;SDS011;9999;48.780;9.146;2023-02-08T07:39:12;6.77;;;3.90;;
7511;SDS011;9999;48.780;9.146;2023-02-08T07:41:39;11.80;;;3.97;;
7511;SDS011;9999;48.780;9.146;2023-02-08T07:44:06;8.50;;;5.87;;
7511;SDS011;9999;48.780;9.146;2023-02-08T07:46:33;10.30;;;5.80;;
7511;SDS011;9999;48.780;9.146;2023-02-08T07:49:01;7.53;;;4.60;;
7511;SDS011;9999;48.780;9.146;2023-02-08T07:51:28;8.50;;;4.20;;
7511;SDS011;9999;48.780;9.146;2023-02-08T07:53:55;10.20;;;5.07;;
7511;SDS011;9999;48.780;9.146;2023-02-08T07:56:21;10.57;;;5.83;;
7511;SDS011;9999;48.780;9.146;2023-02-08T07:58:48;7.10;;;4.43;;
7511;SDS011;9999;48.780;9.146;2023-02-08T08:01:15;8.13;;;4.10;;
7511;SDS011;9999;48.780;9.146;2023-02-08T08:03:42;8.40;;;4.77;;
7511;SDS011;9999;48.780;9.146;2023-02-08T08:06:10;9.77;;;5.70;;
7511;SDS011;9999;48.780;9.146;2023-02-08T08:08:37;10.40;;;5.37;;
7511;SDS011;9999;48.780;9.146;2023-02-08T08:11:04;4.87;;;4.37;;
7511;SDS011;9999;48.780;9.146;2023-02-08T08:13:30;10.17;;;3.83;;
7511;SDS011;9999;48.780;9.146;2023-02-08T08:15:57;8.93;;;4.83;;
7511;SDS011;9999;48.780;9.146;2023-02-08T08:18:24;12.10;;;5.97;;
7511;SDS011;9999;48.780;9.146;2023-02-08T08:20:51;7.63;;;4.97;;
7511;SDS011;9999;48.780;9.146;2023-02-08T08:23:19;9.03;;;5.03;;
7511;SDS011;9999;48.780;9.146;2023-02-08T08:25:45;11.20;;;5.47;;
7511;SDS011;9999;48.780;9.146;2023-02-08T08:28:12;8.00;;;4.70;;
7511;SDS011;9999;48.780;9.146;2023-02-08T08:30:41;8.97;;;5.13;;
7511;SDS011;9999;48.780;9.146;2023-02-08T08:33:08;7.97;;;5.07;;
7511;SDS011;9999;48.780;9.146;2023-02-08T08:35:35;9.80;;;5.37;;
7511;SDS011;9999;48.780;9.146;2023-02-08T08:38:02;10.10;;;6.07;;
7511;SDS011;9999;48.780;9.146;2023-02-08T08:40:30;10.37;;;4.83;;
7511;SDS011;9999;48.780;9.146;2023-02-08T08:42:57;8.17;;;5.00;;
7511;SDS011;9999;48.780;9.146;2023-02-08T08:45:24;10.10;;;5.07;;
7511;SDS011;9999;48.780;9.146;2023-02-08T08:47:50;7.73;;;4.43;;
7511;SDS011;9999;48.780;9.146;2023-02-08T08:50:17;9.33;;;5.03;;
7511;SDS011;9999;48.780;9.146;2023-02-08T08:52:44;12.03;;;6.47;;
7511;SDS011;9999;48.780;9.146;2023-02-08T08:55:11;7.40;;;5.30;;
7511;SDS011;9999;48.780;9.146;2023-02-08T08:57:39;8.03;;;5.13;;
7511;SDS011;9999;48.780;9.146;2023-02-08T09:00:06;9.00;;;4.80;;
7511;SDS011;9999;48.780;9.146;2023-02-08T09:02:34;7.73;;;5.67;;
7511;SDS011;9999;48.780;9.146;2023-02-08T09:05:00;11.33;;;5.77;;
7511;SDS011;9999;48.780;9.146;2023-02-08T09:07:29;6.07;;;4.67;;
7511;SDS011;9999;48.780;9.146;2023-02-08T09:09:56;10.70;;;5.43;;
7511;SDS011;9999;48.780;9.146;2023-02-08T09:12:23;8.63;;;5.87;;
7511;SDS011;9999;48.780;9.146;2023-02-08T09:14:51;5.73;;;4.77;;
7511;SDS011;9999;48.780;9.146;2023-02-08T09:17:17;8.63;;;5.07;;
7511;SDS011;9999;48.780;9.146;2023-02-08T09:19:44;8.87;;;5.67;;
7511;SDS011;9999;48.780;9.146;2023-02-08T09:22:11;8.67;;;5.10;;
7511;SDS011;9999;48.780;9.146;2023-02-08T09:24:38;9.37;;;6.13;;
7511;SDS011;9999;48.780;9.146;2023-02-08T09:27:05;9.50;;;5.27;;
7511;SDS011;9999;48.780;9.146;2023-02-08T09:29:32;10.43;;;5.07;;
7511;SDS011;9999;48.780;9.146;2023-02-08T09:32:01;7.70;;;5.53;;
7511;SDS011;9999;48.780;9.146;2023-02-08T09:34:27;9.07;;;5.57;;
7511;SDS011;9999;48.780;9.146;2023-02-08T09:36:55;10.37;;;5.17;;
7511;SDS011;9999;48.780;9.146;2023-02-08T09:39:23;10.30;;;5.70;;
7511;SDS011;9999;48.780;9.146;2023-02-08T09:45:00;13.70;;;5.63;;
7511;SDS011;9999;48.780;9.146;2023-02-08T09:47:40;10.53;;;5.27;;
7511;SDS011;9999;48.780;9.146;2023-02-08T09:50:12;10.37;;;4.47;;
7511;SDS011;9999;48.780;9.146;2023-02-08T09:52:45;9.27;;;5.73;;
7511;SDS011;9999;48.780;9.146;2023-02-08T09:55:18;6.60;;;4.40;;
7511;SDS011;9999;48.780;9.146;2023-02-08T09:57:51;11.90;;;5.63;;
7511;SDS011;9999;48.780;9.146;2023-02-08T10:00:20;10.50;;;5.80;;
7511;SDS011;9999;48.780;9.146;2023-02-08T10:02:53;11.97;;;6.50;;
7511;SDS011;9999;48.780;9.146;2023-02-08T10:05:24;9.97;;;5.77;;
7511;SDS011;9999;48.780;9.146;2023-02-08T10:07:52;12.90;;;5.33;;
7511;SDS011;9999;48.780;9.146;2023-02-08T10:10:23;9.67;;;4.43;;
7511;SDS011;9999;48.780;9.146;2023-02-08T10:13:00;7.30;;;4.93;;
7511;SDS011;9999;48.780;9.146;2023-02-08T10:15:35;7.77;;;4.43;;
7511;SDS011;9999;48.780;9.146;2023-02-08T10:18:21;7.23;;;4.93;;
7511;SDS011;9999;48.780;9.146;2023-02-08T10:21:04;8.77;;;5.27;;
7511;SDS011;9999;48.780;9.146;2023-02-08T10:23:57;9.47;;;5.20;;
7511;SDS011;9999;48.780;9.146;2023-02-08T10:26:36;7.50;;;4.70;;
7511;SDS011;9999;48.780;9.146;2023-02-08T10:29:18;8.40;;;4.50;;
7511;SDS011;9999;48.780;9.146;2023-02-08T10:35:01;8.77;;;4.20;;
7511;SDS011;9999;48.780;9.146;2023-02-08T10:37:32;8.00;;;5.23;;
7511;SDS011;9999;48.780;9.146;2023-02-08T10:40:06;7.90;;;4.63;;
7511;SDS011;9999;48.780;9.146;2023-02-08T10:42:46;9.30;;;5.40;;
7511;SDS011;9999;48.780;9.146;2023-02-08T10:45:17;6.87;;;4.43;;
7511;SDS011;9999;48.780;9.146;2023-02-08T10:47:51;10.30;;;4.47;;
7511;SDS011;9999;48.780;9.146;2023-02-08T10:50:23;9.17;;;4.80;;
7511;SDS011;9999;48.780;9.146;2023-02-08T10:52:57;10.70;;;5.47;;
7511;SDS011;9999;48.780;9.146;2023-02-08T10:55:23;14.43;;;5.93;;
7511;SDS011;9999;48.780;9.146;2023-02-08T10:57:51;9.17;;;5.13;;
7511;SDS011;9999;48.780;9.146;2023-02-08T11:00:25;10.23;;;5.83;;
7511;SDS011;9999;48.780;9.146;2023-02-08T11:02:54;12.13;;;5.30;;
7511;SDS011;9999;48.780;9.146;2023-02-08T11:05:31;8.30;;;5.60;;
7511;SDS011;9999;48.780;9.146;2023-02-08T11:08:06;10.23;;;6.03;;
7511;SDS011;9999;48.780;9.146;2023-02-08T11:10:35;10.33;;;5.50;;
7511;SDS011;9999;48.780;9.146;2023-02-08T11:13:04;10.60;;;5.03;;
7511;SDS011;9999;48.780;9.146;2023-02-08T11:15:42;7.53;;;4.83;;
7511;SDS011;9999;48.780;9.146;2023-02-08T11:18:14;9.30;;;5.43;;
7511;SDS011;9999;48.780;9.146;2023-02-08T11:20:47;8.50;;;4.70;;
7511;SDS011;9999;48.780;9.146;2023-02-08T11:23:18;7.90;;;5.13;;
7511;SDS011;9999;48.780;9.146;2023-02-08T11:25:51;6.33;;;4.33;;
7511;SDS011;9999;48.780;9.146;2023-02-08T11:28:22;9.33;;;5.07;;
7511;SDS011;9999;48.780;9.146;2023-02-08T11:30:56;7.57;;;4.30;;
7511;SDS011;9999;48.780;9.146;2023-02-08T11:33:24;9.40;;;4.73;;
7511;SDS011;9999;48.780;9.146;2023-02-08T11:35:59;6.33;;;4.13;;
7511;SDS011;9999;48.780;9.146;2023-02-08T11:38:28;6.93;;;3.43;;
7511;SDS011;9999;48.780;9.146;2023-02-08T11:40:56;6.67;;;4.83;;
7511;SDS011;9999;48.780;9.146;2023-02-08T11:43:26;7.07;;;4.37;;
7511;SDS011;9999;48.780;9.146;2023-02-08T11:45:56;9.57;;;4.90;;
7511;SDS011;9999;48.780;9.146;2023-02-08T11:48:33;7.80;;;4.53;;
7511;SDS011;9999;48.780;9.146;2023-02-08T11:51:10;11.00;;;4.13;;
7511;SDS011;9999;48.780;9.146;2023-02-08T11:53:41;9.47;;;4.83;;
7511;SDS011;9999;48.780;9.146;2023-02-08T11:56:14;6.93;;;4.13;;
7511;SDS011;9999;48.780;9.146;2023-02-08T11:58:56;7.80;;;4.30;;
7511;SDS011;9999;48.780;9.146;2023-02-08T12:01:28;6.27;;;4.27;;
7511;SDS011;9999;48.780;9.146;2023-02-08T12:03:57;6.97;;;4.07;;
7511;SDS011;9999;48.780;9.146;2023-02-08T12:06:35;7.53;;;4.20;;
7511;SDS011;9999;48.780;9.146;2023-02-08T12:09:17;8.47;;;4.83;;
7511;SDS011;9999;48.780;9.146;2023-02-08T12:11:55;8.20;;;4.87;;
7511;SDS011;9999;48.780;9.146;2023-02-08T12:14:35;4.33;;;3.83;;
7511;SDS011;9999;48.780;9.146;2023-02-08T12:17:16;6.53;;;3.90;;
7511;SDS011;9999;48.780;9.146;2023-02-08T12:20:14;8.33;;;4.30;;
7511;SDS011;9999;48.780;9.146;2023-02-08T12:23:01;8.70;;;4.30;;
7511;SDS011;9999;48.780;9.146;2023-02-08T12:25:40;6.27;;;3.83;;
7511;SDS011;9999;48.780;9.146;2023-02-08T12:28:14;6.20;;;3.50;;
7511;SDS011;9999;48.780;9.146;2023-02-08T12:30:49;8.00;;;4.10;;
7511;SDS011;9999;48.780;9.146;2023-02-08T12:33:30;7.17;;;3.73;;
7511;SDS011;9999;48.780;9.146;2023-02-08T12:39:09;9.17;;;3.50;;
7511;SDS011;9999;48.780;9.146;2023-02-08T12:42:05;7.40;;;2.97;;
7511;SDS011;9999;48.780;9.146;2023-02-08T12:44:45;7.60;;;3.63;;
7511;SDS011;9999;48.780;9.146;2023-02-08T12:47:37;5.73;;;3.83;;
7511;SDS011;9999;48.780;9.146;2023-02-08T12:50:20;5.33;;;3.00;;
7511;SDS011;9999;48.780;9.146;2023-02-08T12:52:53;6.70;;;3.73;;
7511;SDS011;9999;48.780;9.146;2023-02-08T12:55:27;6.20;;;3.97;;
7511;SDS011;9999;48.780;9.146;2023-02-08T12:57:56;7.07;;;3.63;;
7511;SDS011;9999;48.780;9.146;2023-02-08T13:00:25;9.80;;;5.07;;
7511;SDS011;9999;48.780;9.146;2023-02-08T13:02:57;8.90;;;3.87;;
7511;SDS011;9999;48.780;9.146;2023-02-08T13:05:32;4.60;;;3.17;;
7511;SDS011;9999;48.780;9.146;2023-02-08T13:08:05;7.40;;;4.23;;
7511;SDS011;9999;48.780;9.146;2023-02-08T13:10:42;8.30;;;3.93;;
7511;SDS011;9999;48.780;9.146;2023-02-08T13:13:15;4.40;;;3.07;;
7511;SDS011;9999;48.780;9.146;2023-02-08T13:15:47;4.90;;;3.50;;
7511;SDS011;9999;48.780;9.146;2023-02-08T13:18:20;5.83;;;3.67;;
7511;SDS011;9999;48.780;9.146;2023-02-08T13:20:50;6.90;;;3.67;;
7511;SDS011;9999;48.780;9.146;2023-02-08T13:23:20;8.90;;;3.33;;
7511;SDS011;9999;48.780;9.146;2023-02-08T13:25:51;6.93;;;3.60;;
7511;SDS011;9999;48.780;9.146;2023-02-08T13:28:20;6.47;;;3.40;;
7511;SDS011;9999;48.780;9.146;2023-02-08T13:30:56;7.50;;;4.33;;
7511;SDS011;9999;48.780;9.146;2023-02-08T13:33:28;9.50;;;3.87;;
7511;SDS011;9999;48.780;9.146;2023-02-08T13:35:59;5.10;;;3.13;;
7511;SDS011;9999;48.780;9.146;2023-02-08T13:38:27;7.87;;;3.33;;
7511;SDS011;9999;48.780;9.146;2023-02-08T13:41:01;8.10;;;3.23;;
7511;SDS011;9999;48.780;9.146;2023-02-08T13:43:40;6.90;;;4.23;;
7511;SDS011;9999;48.780;9.146;2023-02-08T13:46:11;5.23;;;3.63;;
7511;SDS011;9999;48.780;9.146;2023-02-08T13:48:39;9.17;;;3.40;;
7511;SDS011;9999;48.780;9.146;2023-02-08T13:54:27;6.17;;;3.00;;
7511;SDS011;9999;48.780;9.146;2023-02-08T13:56:55;5.70;;;3.10;;
7511;SDS011;9999;48.780;9.146;2023-02-08T13:59:26;5.50;;;2.93;;
7511;SDS011;9999;48.780;9.146;2023-02-08T14:04:51;5.70;;;3.27;;
7511;SDS011;9999;48.780;9.146;2023-02-08T14:07:21;6.67;;;2.90;;
7511;SDS011;9999;48.780;9.146;2023-02-08T14:12:52;4.33;;;3.27;;
7511;SDS011;9999;48.780;9.146;2023-02-08T14:15:29;7.43;;;3.73;;
7511;SDS011;9999;48.780;9.146;2023-02-08T14:17:57;3.63;;;2.77;;
7511;SDS011;9999;48.780;9.146;2023-02-08T14:20:31;7.37;;;4.00;;
7511;SDS011;9999;48.780;9.146;2023-02-08T14:23:03;6.97;;;3.70;;
7511;SDS011;9999;48.780;9.146;2023-02-08T14:25:40;5.00;;;3.00;;
7511;SDS011;9999;48.780;9.146;2023-02-08T14:28:21;6.23;;;3.33;;
7511;SDS011;9999;48.780;9.146;2023-02-08T14:30:51;5.37;;;3.10;;
7511;SDS011;9999;48.780;9.146;2023-02-08T14:33:21;5.93;;;2.93;;
7511;SDS011;9999;48.780;9.146;2023-02-08T14:35:52;4.93;;;3.13;;
7511;SDS011;9999;48.780;9.146;2023-02-08T14:38:48;3.50;;;2.73;;
7511;SDS011;9999;48.780;9.146;2023-02-08T14:50:49;6.27;;;3.73;;
7511;SDS011;9999;48.780;9.146;2023-02-08T14:53:33;4.43;;;2.83;;
7511;SDS011;9999;48.780;9.146;2023-02-08T14:56:06;3.00;;;2.53;;
7511;SDS011;9999;48.780;9.146;2023-02-08T14:58:42;4.50;;;3.03;;
7511;SDS011;9999;48.780;9.146;2023-02-08T15:01:16;6.23;;;3.00;;
7511;SDS011;9999;48.780;9.146;2023-02-08T15:03:45;4.57;;;3.17;;
7511;SDS011;9999;48.780;9.146;2023-02-08T15:09:23;5.47;;;3.43;;
7511;SDS011;9999;48.780;9.146;2023-02-08T15:11:56;6.83;;;4.70;;
7511;SDS011;9999;48.780;9.146;2023-02-08T15:14:25;7.53;;;3.33;;
7511;SDS011;9999;48.780;9.146;2023-02-08T15:16:55;6.93;;;3.50;;
7511;SDS011;9999;48.780;9.146;2023-02-08T15:19:23;6.83;;;3.50;;
7511;SDS011;9999;48.780;9.146;2023-02-08T15:21:52;9.17;;;4.17;;
7511;SDS011;9999;48.780;9.146;2023-02-08T15:24:20;8.60;;;4.23;;
7511;SDS011;9999;48.780;9.146;2023-02-08T15:26:49;7.03;;;3.63;;
7511;SDS011;9999;48.780;9.146;2023-02-08T15:29:19;9.37;;;3.30;;
7511;SDS011;9999;48.780;9.146;2023-02-08T15:31:47;4.07;;;3.13;;
7511;SDS011;9999;48.780;9.146;2023-02-08T15:34:16;4.53;;;3.30;;
7511;SDS011;9999;48.780;9.146;2023-02-08T15:36:45;8.47;;;3.77;;
7511;SDS011;9999;48.780;9.146;2023-02-08T15:39:19;8.80;;;4.17;;
7511;SDS011;9999;48.780;9.146;2023-02-08T15:41:54;6.27;;;3.70;;
7511;SDS011;9999;48.780;9.146;2023-02-08T15:44:23;7.30;;;4.63;;
7511;SDS011;9999;48.780;9.146;2023-02-08T15:46:52;7.87;;;3.87;;
7511;SDS011;9999;48.780;9.146;2023-02-08T15:49:22;9.47;;;4.53;;
7511;SDS011;9999;48.780;9.146;2023-02-08T15:51:53;6.07;;;3.47;;
7511;SDS011;9999;48.780;9.146;2023-02-08T15:54:22;6.00;;;4.07;;
7511;SDS011;9999;48.780;9.146;2023-02-08T15:56:50;8.83;;;3.97;;
7511;SDS011;9999;48.780;9.146;2023-02-08T15:59:21;9.13;;;4.33;;
7511;SDS011;9999;48.780;9.146;2023-02-08T16:01:50;9.80;;;4.23;;
7511;SDS011;9999;48.780;9.146;2023-02-08T16:04:18;6.70;;;4.80;;
7511;SDS011;9999;48.780;9.146;2023-02-08T16:06:48;10.30;;;5.13;;
7511;SDS011;9999;48.780;9.146;2023-02-08T16:09:18;9.10;;;5.03;;